Greenbrier, Arkansas
Current Conditions -  °F | °C
As of 4:58 AM on Wednesday 22 Oct 2014 (Local Time) from KLRF Reporting Station
Clear Clear  
Wind Chill: 47°   Ceiling: Unl
Heat Index: 47°   Visibility: 8mi
Dew Point: 44°   Wind: 0mph
Humidity: 92%   Direction: NA
Pressure: 30.16"   Gusts: NA
Location:  35.23°N, 92.39°W
Report Text: KLRF 220958Z AUTO 00000KT 8SM CLR 08/07 A3016 RMK AO2 SLP215 T00810068
Loading
Personal Weather Stations






























Interactive Weather Map New forecast layout! Learn more

10-Day Weather Forecast

Advertisements
Track Severe Weather on mobile